createdAt,value
2019-02-22T00:01:31.907Z,38.98
2019-02-22T00:04:02.035Z,40.43
2019-02-22T00:06:32.253Z,40.35
2019-02-22T00:09:02.575Z,42.27
2019-02-22T00:11:33.114Z,45.12
2019-02-22T00:14:03.022Z,41.28
2019-02-22T00:16:32.842Z,41.30
2019-02-22T00:19:02.939Z,43.63
2019-02-22T00:21:32.997Z,40.75
2019-02-22T00:24:03.374Z,42.53
2019-02-22T00:26:33.717Z,42.20
2019-02-22T00:29:03.928Z,42.60
2019-02-22T00:31:34.093Z,43.10
2019-02-22T00:34:04.091Z,45.65
2019-02-22T00:36:33.860Z,43.28
2019-02-22T00:39:05.343Z,42.20
2019-02-22T00:41:35.282Z,42.65
2019-02-22T00:44:05.501Z,43.45
2019-02-22T00:46:35.795Z,40.55
2019-02-22T00:49:06.413Z,43.13
2019-02-22T00:51:36.540Z,43.78
2019-02-22T00:54:07.230Z,45.48
2019-02-22T00:56:37.678Z,45.78
2019-02-22T00:59:07.418Z,41.53
2019-02-22T01:01:37.436Z,42.95
2019-02-22T01:04:08.268Z,46.40
2019-02-22T01:06:38.640Z,45.12
2019-02-22T01:09:09.576Z,47.27
2019-02-22T01:11:40.064Z,46.53
2019-02-22T01:14:10.149Z,46.35
2019-02-22T01:16:40.266Z,44.25
2019-02-22T01:19:14.882Z,44.40
2019-02-22T01:21:42.338Z,44.95
2019-02-22T01:24:12.840Z,43.73
2019-02-22T01:26:46.321Z,45.17
2019-02-22T01:29:16.657Z,48.28
2019-02-22T01:31:46.902Z,44.58
2019-02-22T01:34:17.134Z,43.40
2019-02-22T01:36:47.788Z,44.80
2019-02-22T01:39:18.375Z,45.55
2019-02-22T01:41:48.217Z,45.38
2019-02-22T01:44:22.728Z,46.50
2019-02-22T01:46:53.344Z,51.33
2019-02-22T01:49:23.769Z,45.88
2019-02-22T01:51:54.229Z,43.45
2019-02-22T01:54:24.549Z,47.58
2019-02-22T01:56:55.069Z,44.33
2019-02-22T01:59:25.206Z,45.30
2019-02-22T02:01:55.516Z,42.95
2019-02-22T02:04:26.993Z,43.00
2019-02-22T02:06:57.169Z,42.17
2019-02-22T02:09:27.747Z,45.85
2019-02-22T02:11:57.967Z,44.38
2019-02-22T02:14:28.303Z,45.65
2019-02-22T02:16:59.007Z,45.43
2019-02-22T02:19:29.238Z,46.73
2019-02-22T02:21:59.861Z,47.88
2019-02-22T02:24:29.986Z,45.38
2019-02-22T02:27:00.234Z,46.05
2019-02-22T02:29:30.470Z,43.00
2019-02-22T02:32:00.853Z,44.95
2019-02-22T02:34:31.424Z,45.15
2019-02-22T02:37:01.721Z,41.65
2019-02-22T02:39:32.220Z,45.92
2019-02-22T02:42:02.561Z,45.15
2019-02-22T02:44:32.934Z,44.53
2019-02-22T02:47:02.988Z,45.45
2019-02-22T02:49:32.969Z,46.55
2019-02-22T02:52:03.485Z,43.42
2019-02-22T02:54:33.343Z,45.23
2019-02-22T02:57:04.057Z,45.17
2019-02-22T02:59:34.413Z,45.03
2019-02-22T03:02:07.133Z,46.68
2019-02-22T03:04:38.054Z,44.18
2019-02-22T03:07:16.286Z,43.52
2019-02-22T03:09:47.923Z,43.10
2019-02-22T03:12:18.450Z,44.75
2019-02-22T03:14:48.858Z,44.90
2019-02-22T03:17:19.179Z,45.25
2019-02-22T03:19:49.432Z,44.05
2019-02-22T03:22:19.184Z,46.75
2019-02-22T03:24:53.507Z,46.08
2019-02-22T03:27:21.904Z,43.40
2019-02-22T03:29:54.117Z,46.58
2019-02-22T03:32:24.646Z,44.88
2019-02-22T03:34:54.837Z,43.20
2019-02-22T03:37:24.996Z,46.10
2019-02-22T03:40:01.449Z,44.90
2019-02-22T03:42:32.258Z,43.38
2019-02-22T03:45:05.887Z,45.08
2019-02-22T03:47:35.730Z,42.05
2019-02-22T03:50:05.923Z,46.28
2019-02-22T03:52:40.653Z,45.30
2019-02-22T03:55:10.936Z,41.98
2019-02-22T03:57:41.836Z,44.60
2019-02-22T04:00:11.891Z,44.23
2019-02-22T04:02:42.363Z,45.45
2019-02-22T04:05:12.945Z,43.48
2019-02-22T04:07:46.334Z,44.95
2019-02-22T04:10:18.099Z,42.53
2019-02-22T04:12:49.959Z,45.38
2019-02-22T04:15:22.324Z,43.40
2019-02-22T04:17:55.824Z,43.08
2019-02-22T04:20:25.907Z,43.55
2019-02-22T04:22:56.267Z,41.70
2019-02-22T04:25:35.585Z,42.25
2019-02-22T04:28:11.937Z,38.20
2019-02-22T04:30:42.873Z,39.40
2019-02-22T04:33:15.042Z,37.88
2019-02-22T04:35:45.877Z,39.10
2019-02-22T04:38:19.472Z,36.42
2019-02-22T04:40:53.212Z,39.30
2019-02-22T04:43:32.522Z,37.45
2019-02-22T04:46:05.124Z,41.90
2019-02-22T04:48:42.908Z,39.30
2019-02-22T04:51:19.369Z,41.00
2019-02-22T04:53:51.233Z,38.98
2019-02-22T04:56:21.768Z,41.08
2019-02-22T04:58:53.930Z,38.98
2019-02-22T05:01:24.116Z,38.33
2019-02-22T05:03:56.426Z,39.83
2019-02-22T05:06:27.050Z,37.28
2019-02-22T05:08:57.692Z,38.60
2019-02-22T05:11:28.596Z,39.03
2019-02-22T05:13:59.261Z,39.08
2019-02-22T05:16:29.696Z,36.65
2019-02-22T05:19:05.971Z,39.40
2019-02-22T05:21:39.456Z,37.40
2019-02-22T05:24:12.132Z,37.40
2019-02-22T05:26:45.452Z,38.28
2019-02-22T05:29:14.908Z,37.90
2019-02-22T05:31:44.491Z,39.48
2019-02-22T05:34:13.915Z,39.20
2019-02-22T05:36:44.283Z,37.13
2019-02-22T05:39:19.103Z,35.85
2019-02-22T05:41:45.499Z,37.70
2019-02-22T05:44:15.149Z,39.48
2019-02-22T05:46:45.018Z,38.80
2019-02-22T05:49:17.750Z,37.42
2019-02-22T05:51:47.488Z,38.42
2019-02-22T05:54:17.127Z,37.33
2019-02-22T05:56:47.010Z,36.35
2019-02-22T05:59:16.945Z,38.55
2019-02-22T06:01:46.825Z,38.15
2019-02-22T06:04:16.583Z,36.80
2019-02-22T06:06:46.369Z,36.93
2019-02-22T06:09:16.288Z,39.83
2019-02-22T06:11:46.173Z,37.85
2019-02-22T06:14:16.105Z,36.77
2019-02-22T06:16:46.769Z,36.55
2019-02-22T06:19:16.564Z,36.55
2019-02-22T06:21:46.538Z,38.58
2019-02-22T06:24:17.497Z,37.17
2019-02-22T06:26:47.406Z,37.55
2019-02-22T06:29:16.917Z,39.38
2019-02-22T06:31:46.650Z,37.42
2019-02-22T06:34:16.166Z,35.90
2019-02-22T06:36:46.223Z,35.10
2019-02-22T06:39:15.958Z,36.58
2019-02-22T06:41:45.622Z,36.85
2019-02-22T06:44:15.445Z,35.98
2019-02-22T06:46:45.089Z,37.35
2019-02-22T06:49:14.791Z,36.65
2019-02-22T06:51:44.483Z,35.75
2019-02-22T06:54:14.205Z,37.50
2019-02-22T06:56:43.914Z,34.83
2019-02-22T06:59:13.647Z,34.35
2019-02-22T07:01:43.239Z,32.88
2019-02-22T07:04:12.924Z,33.80
2019-02-22T07:06:42.441Z,32.40
2019-02-22T07:09:12.051Z,32.70
2019-02-22T07:11:52.417Z,32.75
2019-02-22T07:14:22.116Z,34.03
2019-02-22T07:16:51.568Z,33.83
2019-02-22T07:19:21.533Z,31.60
2019-02-22T07:21:53.004Z,31.87
2019-02-22T07:24:22.406Z,33.10
2019-02-22T07:26:52.089Z,35.38
2019-02-22T07:29:22.248Z,33.20
2019-02-22T07:31:52.176Z,31.42
2019-02-22T07:34:21.730Z,31.60
2019-02-22T07:36:51.742Z,33.05
2019-02-22T07:39:27.900Z,32.27
2019-02-22T07:41:52.647Z,33.08
2019-02-22T07:44:22.105Z,36.45
2019-02-22T07:46:51.905Z,37.45
2019-02-22T07:49:26.004Z,35.15
2019-02-22T07:51:55.725Z,36.63
2019-02-22T07:54:25.526Z,32.75
2019-02-22T07:56:55.048Z,30.05
2019-02-22T07:59:24.651Z,30.88
2019-02-22T08:01:54.564Z,31.55
2019-02-22T08:04:24.143Z,29.65
2019-02-22T08:06:53.729Z,28.90
2019-02-22T08:09:23.484Z,29.45
2019-02-22T08:11:53.243Z,29.52
2019-02-22T08:14:22.998Z,30.48
2019-02-22T08:16:52.505Z,30.23
2019-02-22T08:19:22.010Z,28.98
2019-02-22T08:21:51.918Z,27.80
2019-02-22T08:24:21.680Z,28.27
2019-02-22T08:26:51.321Z,28.65
2019-02-22T08:29:22.161Z,27.48
2019-02-22T08:31:51.705Z,28.75
2019-02-22T08:34:21.284Z,28.07
2019-02-22T08:36:50.843Z,28.32
2019-02-22T08:39:20.302Z,29.07
2019-02-22T08:41:50.204Z,28.52
2019-02-22T08:44:19.938Z,26.57
2019-02-22T08:46:49.617Z,30.53
2019-02-22T08:49:19.127Z,29.25
2019-02-22T08:51:48.523Z,29.75
2019-02-22T08:54:18.127Z,27.50
2019-02-22T08:56:47.960Z,26.80
2019-02-22T08:59:17.600Z,26.75
2019-02-22T09:01:47.599Z,28.73
2019-02-22T09:04:17.274Z,27.65
2019-02-22T09:06:47.149Z,25.30
2019-02-22T09:09:16.787Z,27.23
2019-02-22T09:11:46.402Z,28.70
2019-02-22T09:14:16.038Z,26.65
2019-02-22T09:16:45.682Z,27.07
2019-02-22T09:19:15.318Z,25.90
2019-02-22T09:21:44.963Z,25.80
2019-02-22T09:24:14.427Z,25.92
2019-02-22T09:26:43.931Z,24.23
2019-02-22T09:29:13.639Z,24.77
2019-02-22T09:31:43.756Z,26.13
2019-02-22T09:34:13.399Z,25.97
2019-02-22T09:36:43.082Z,25.92
2019-02-22T09:39:12.701Z,25.95
2019-02-22T09:41:42.442Z,23.33
2019-02-22T09:44:12.003Z,24.85
2019-02-22T09:46:41.696Z,22.80
2019-02-22T09:49:11.303Z,24.05
2019-02-22T09:51:41.321Z,25.90
2019-02-22T09:54:11.039Z,24.10
2019-02-22T09:56:40.576Z,22.03
2019-02-22T09:59:10.144Z,23.47
2019-02-22T10:01:39.928Z,22.57
2019-02-22T10:04:09.554Z,20.93
2019-02-22T10:06:39.200Z,18.90
2019-02-22T10:09:08.659Z,20.87
2019-02-22T10:11:38.717Z,21.83
2019-02-22T10:14:08.476Z,20.60
2019-02-22T10:16:38.196Z,17.83
2019-02-22T10:19:07.929Z,19.17
2019-02-22T10:21:37.637Z,19.80
2019-02-22T10:24:07.397Z,19.73
2019-02-22T10:26:37.155Z,19.40
2019-02-22T10:29:06.739Z,18.87
2019-02-22T10:31:36.435Z,15.80
2019-02-22T10:34:06.215Z,17.17
2019-02-22T10:36:44.792Z,14.93
2019-02-22T10:39:07.318Z,15.00
2019-02-22T10:41:37.022Z,14.50
2019-02-22T10:44:17.077Z,15.50
2019-02-22T10:46:38.079Z,14.20
2019-02-22T10:49:08.237Z,14.77
2019-02-22T10:51:38.212Z,15.77
2019-02-22T10:54:08.332Z,15.83
2019-02-22T10:56:39.330Z,14.30
2019-02-22T10:59:09.194Z,15.13
2019-02-22T11:01:38.891Z,12.10
2019-02-22T11:04:08.718Z,12.43
2019-02-22T11:06:38.600Z,12.60
2019-02-22T11:09:08.527Z,14.23
2019-02-22T11:11:38.233Z,9.57
2019-02-22T11:14:07.995Z,5.40
2019-02-22T11:16:37.549Z,6.10
2019-02-22T11:19:07.403Z,4.67
2019-02-22T11:21:36.968Z,2.40
2019-02-22T11:24:06.918Z,2.90
2019-02-22T11:26:36.485Z,3.60
2019-02-22T11:29:06.319Z,4.63
2019-02-22T11:31:36.091Z,3.90
2019-02-22T11:34:06.074Z,3.97
2019-02-22T11:36:36.013Z,6.10
2019-02-22T11:39:06.734Z,5.33
2019-02-22T11:41:36.887Z,5.17
2019-02-22T11:44:06.612Z,5.00
2019-02-22T11:46:36.680Z,5.77
2019-02-22T11:49:06.316Z,4.47
2019-02-22T11:51:35.956Z,5.90
2019-02-22T11:54:05.478Z,4.90
2019-02-22T11:56:35.120Z,5.33
2019-02-22T11:59:04.849Z,5.00
2019-02-22T12:01:34.513Z,6.33
2019-02-22T12:04:04.394Z,4.90
2019-02-22T12:06:33.849Z,5.63
2019-02-22T12:09:04.752Z,5.50
2019-02-22T12:11:34.518Z,6.77
2019-02-22T12:14:04.516Z,6.07
2019-02-22T12:16:34.159Z,6.50
2019-02-22T12:19:03.674Z,6.27
2019-02-22T12:21:33.312Z,6.10
2019-02-22T12:24:03.197Z,6.50
2019-02-22T12:26:32.953Z,5.70
2019-02-22T12:29:02.591Z,7.50
2019-02-22T12:31:32.112Z,7.37
2019-02-22T12:34:01.992Z,7.17
2019-02-22T12:36:31.496Z,5.73
2019-02-22T12:39:01.102Z,4.77
2019-02-22T12:41:30.917Z,5.73
2019-02-22T12:44:00.677Z,5.33
2019-02-22T12:46:30.230Z,6.50
2019-02-22T12:48:59.861Z,5.30
2019-02-22T12:51:29.479Z,6.70
2019-02-22T12:53:59.353Z,7.30
2019-02-22T12:56:55.827Z,7.10
2019-02-22T12:59:00.494Z,5.87
2019-02-22T13:01:30.435Z,8.43
2019-02-22T13:03:59.929Z,7.37
2019-02-22T13:06:29.889Z,6.80
2019-02-22T13:08:59.446Z,7.40
2019-02-22T13:11:29.478Z,7.23
2019-02-22T13:13:59.236Z,6.23
2019-02-22T13:16:28.512Z,6.43
2019-02-22T13:18:58.157Z,6.20
2019-02-22T13:21:27.584Z,7.30
2019-02-22T13:23:57.493Z,6.63
2019-02-22T13:26:27.072Z,7.20
2019-02-22T13:28:56.528Z,6.80
2019-02-22T13:31:30.125Z,7.10
2019-02-22T13:33:57.556Z,6.47
2019-02-22T13:36:27.432Z,6.47
2019-02-22T13:38:57.248Z,7.30
2019-02-22T13:41:27.550Z,7.50
2019-02-22T13:43:57.550Z,8.03
2019-02-22T13:46:27.488Z,8.73
2019-02-22T13:48:57.438Z,8.23
2019-02-22T13:51:27.051Z,9.97
2019-02-22T13:53:56.560Z,10.80
2019-02-22T13:56:29.594Z,10.93
2019-02-22T13:58:57.105Z,9.90
2019-02-22T14:01:27.070Z,9.60
2019-02-22T14:03:56.515Z,10.40
2019-02-22T14:06:26.431Z,12.87
2019-02-22T14:08:56.113Z,13.00
2019-02-22T14:11:25.632Z,12.40
2019-02-22T14:13:55.512Z,14.67
2019-02-22T14:16:25.069Z,14.93
2019-02-22T14:18:55.034Z,15.47
2019-02-22T14:21:24.580Z,14.80
2019-02-22T14:23:54.193Z,11.80
2019-02-22T14:26:23.789Z,13.00
2019-02-22T14:28:53.351Z,12.60
2019-02-22T14:31:23.109Z,13.97
2019-02-22T14:33:52.611Z,12.47
2019-02-22T14:36:22.212Z,11.83
2019-02-22T14:38:52.269Z,10.70
2019-02-22T14:41:21.839Z,10.70
2019-02-22T14:43:51.747Z,10.17
2019-02-22T14:46:26.021Z,10.23
2019-02-22T14:48:52.496Z,9.50
2019-02-22T14:51:21.914Z,9.20
2019-02-22T14:53:51.514Z,8.50
2019-02-22T14:56:21.419Z,10.50
2019-02-22T14:58:51.330Z,9.87
2019-02-22T15:01:20.936Z,9.20
2019-02-22T15:03:50.833Z,8.90
2019-02-22T15:06:20.351Z,10.30
2019-02-22T15:08:50.062Z,11.30
2019-02-22T15:11:19.868Z,11.40
2019-02-22T15:13:49.602Z,10.00
2019-02-22T15:16:31.993Z,11.07
2019-02-22T15:19:02.009Z,10.83
2019-02-22T15:21:31.507Z,9.30
2019-02-22T15:24:01.754Z,10.20
2019-02-22T15:26:31.552Z,10.83
2019-02-22T15:29:01.392Z,12.93
2019-02-22T15:31:35.984Z,15.40
2019-02-22T15:34:02.234Z,14.03
2019-02-22T15:36:31.990Z,16.90
2019-02-22T15:39:01.659Z,16.40
2019-02-22T15:41:31.431Z,16.27
2019-02-22T15:44:01.276Z,16.40
2019-02-22T15:46:31.170Z,15.13
2019-02-22T15:49:00.891Z,14.90
2019-02-22T15:51:31.026Z,15.30
2019-02-22T15:54:01.162Z,14.10
2019-02-22T15:56:30.908Z,14.20
2019-02-22T15:59:00.670Z,14.67
2019-02-22T16:01:30.559Z,14.93
2019-02-22T16:04:08.228Z,15.07
2019-02-22T16:06:38.349Z,16.97
2019-02-22T16:09:09.077Z,15.97
2019-02-22T16:11:38.594Z,15.20
2019-02-22T16:14:08.391Z,16.30
2019-02-22T16:16:38.106Z,15.90
2019-02-22T16:19:07.991Z,17.03
2019-02-22T16:21:37.272Z,18.93
2019-02-22T16:24:06.714Z,17.17
2019-02-22T16:26:36.427Z,18.07
2019-02-22T16:29:06.441Z,16.70
2019-02-22T16:31:36.127Z,18.40
2019-02-22T16:34:06.190Z,18.90
2019-02-22T16:36:35.596Z,20.40
2019-02-22T16:39:06.686Z,19.57
2019-02-22T16:41:36.310Z,20.50
2019-02-22T16:44:06.188Z,20.37
2019-02-22T16:46:36.190Z,19.67
2019-02-22T16:49:06.152Z,21.43
2019-02-22T16:51:35.762Z,20.33
2019-02-22T16:54:05.470Z,19.10
2019-02-22T16:56:35.110Z,21.27
2019-02-22T16:59:04.680Z,20.60
2019-02-22T17:01:34.264Z,20.57
2019-02-22T17:04:04.041Z,19.67
2019-02-22T17:06:34.376Z,21.03
2019-02-22T17:09:05.465Z,20.23
2019-02-22T17:11:35.684Z,19.80
2019-02-22T17:14:05.285Z,21.00
2019-02-22T17:16:45.242Z,20.40
2019-02-22T17:19:06.799Z,20.07
2019-02-22T17:21:36.422Z,21.80
2019-02-22T17:24:06.550Z,22.20
2019-02-22T17:26:36.788Z,21.07
2019-02-22T17:29:06.911Z,20.70
2019-02-22T17:31:39.907Z,22.10
2019-02-22T17:34:10.153Z,20.90
2019-02-22T17:36:40.539Z,24.40
2019-02-22T17:39:10.629Z,22.17
2019-02-22T17:41:42.775Z,23.30
2019-02-22T17:44:12.250Z,20.73
2019-02-22T17:46:42.244Z,23.50
2019-02-22T17:49:12.281Z,23.50
2019-02-22T17:51:43.765Z,22.73
2019-02-22T17:54:14.051Z,24.53
2019-02-22T17:56:44.012Z,21.87
2019-02-22T17:59:13.881Z,25.40
2019-02-22T18:01:44.108Z,23.37
2019-02-22T18:04:14.114Z,22.73
2019-02-22T18:06:45.214Z,23.77
2019-02-22T18:09:15.639Z,23.00
2019-02-22T18:11:45.809Z,24.57
2019-02-22T18:14:15.864Z,21.80
2019-02-22T18:16:46.106Z,21.60
2019-02-22T18:19:16.281Z,22.50
2019-02-22T18:21:46.047Z,23.00
2019-02-22T18:24:16.168Z,22.40
2019-02-22T18:26:46.572Z,23.40
2019-02-22T18:29:16.369Z,21.10
2019-02-22T18:31:46.386Z,22.20
2019-02-22T18:34:16.405Z,23.07
2019-02-22T18:36:46.654Z,23.17
2019-02-22T18:39:16.589Z,24.10
2019-02-22T18:41:47.033Z,21.43
2019-02-22T18:44:17.227Z,23.03
2019-02-22T18:46:46.991Z,23.17
2019-02-22T18:49:17.032Z,22.27
2019-02-22T18:51:47.010Z,22.55
2019-02-22T18:54:17.102Z,20.95
2019-02-22T18:56:47.391Z,25.20
2019-02-22T18:59:17.524Z,24.43
2019-02-22T19:01:47.822Z,23.20
2019-02-22T19:04:18.195Z,23.25
2019-02-22T19:06:48.700Z,22.07
2019-02-22T19:09:18.803Z,21.40
2019-02-22T19:11:49.039Z,23.62
2019-02-22T19:14:18.765Z,23.60
2019-02-22T19:16:48.439Z,23.15
2019-02-22T19:19:18.422Z,22.67
2019-02-22T19:21:48.446Z,23.85
2019-02-22T19:24:18.513Z,25.45
2019-02-22T19:26:48.551Z,23.95
2019-02-22T19:29:18.842Z,24.87
2019-02-22T19:31:49.049Z,22.62
2019-02-22T19:34:19.387Z,25.15
2019-02-22T19:36:50.824Z,25.08
2019-02-22T19:39:21.484Z,22.93
2019-02-22T19:41:51.675Z,23.57
2019-02-22T19:44:22.155Z,23.02
2019-02-22T19:46:52.136Z,23.87
2019-02-22T19:49:22.625Z,26.40
2019-02-22T19:51:53.286Z,25.00
2019-02-22T19:54:23.225Z,23.20
2019-02-22T19:56:53.343Z,23.22
2019-02-22T19:59:23.828Z,25.10
2019-02-22T20:01:54.333Z,26.42
2019-02-22T20:04:24.895Z,24.37
2019-02-22T20:06:55.151Z,23.00
2019-02-22T20:09:25.221Z,21.85
2019-02-22T20:11:55.627Z,23.47
2019-02-22T20:14:25.753Z,22.37
2019-02-22T20:16:56.280Z,21.05
2019-02-22T20:19:26.474Z,23.70
2019-02-22T20:21:56.523Z,23.05
2019-02-22T20:24:26.727Z,21.55
2019-02-22T20:26:56.725Z,23.98
2019-02-22T20:29:26.227Z,23.80
2019-02-22T20:31:56.245Z,22.20
2019-02-22T20:34:26.465Z,23.80
2019-02-22T20:36:56.480Z,25.08
2019-02-22T20:39:26.647Z,25.25
2019-02-22T20:41:56.718Z,24.35
2019-02-22T20:44:26.871Z,24.15
2019-02-22T20:46:57.522Z,21.05
2019-02-22T20:49:27.532Z,22.45
2019-02-22T20:51:57.698Z,23.83
2019-02-22T20:54:28.380Z,23.02
2019-02-22T20:56:58.140Z,23.12
2019-02-22T20:59:28.197Z,23.30
2019-02-22T21:01:58.356Z,21.10
2019-02-22T21:04:28.351Z,20.25
2019-02-22T21:06:58.505Z,20.27
2019-02-22T21:09:28.711Z,19.48
2019-02-22T21:11:58.622Z,19.92
2019-02-22T21:14:28.430Z,18.37
2019-02-22T21:16:58.508Z,18.50
2019-02-22T21:19:28.621Z,18.00
2019-02-22T21:21:58.568Z,20.82
2019-02-22T21:24:28.414Z,19.12
2019-02-22T21:26:58.828Z,19.55
2019-02-22T21:29:29.236Z,18.57
2019-02-22T21:31:59.579Z,18.40
2019-02-22T21:34:29.577Z,17.95
2019-02-22T21:36:59.712Z,16.85
2019-02-22T21:39:29.703Z,18.40
2019-02-22T21:42:00.063Z,16.60
2019-02-22T21:44:30.600Z,18.65
2019-02-22T21:47:00.904Z,16.85
2019-02-22T21:49:31.460Z,17.23
2019-02-22T21:52:02.019Z,17.92
2019-02-22T21:54:32.222Z,15.60
2019-02-22T21:57:02.595Z,17.82
2019-02-22T21:59:32.761Z,16.67
2019-02-22T22:02:05.135Z,16.45
2019-02-22T22:04:35.736Z,16.90
2019-02-22T22:07:06.414Z,16.90
2019-02-22T22:09:36.822Z,16.30
2019-02-22T22:12:10.255Z,16.07
2019-02-22T22:14:40.652Z,15.75
2019-02-22T22:17:11.283Z,15.58
2019-02-22T22:19:41.709Z,15.43
2019-02-22T22:22:12.136Z,13.55
2019-02-22T22:24:42.424Z,15.23
2019-02-22T22:27:12.792Z,14.95
2019-02-22T22:29:43.275Z,14.98
2019-02-22T22:32:13.386Z,14.70
2019-02-22T22:34:43.634Z,15.23
2019-02-22T22:37:13.987Z,15.88
2019-02-22T22:39:44.156Z,15.95
2019-02-22T22:42:14.124Z,15.72
2019-02-22T22:44:45.071Z,16.40
2019-02-22T22:47:18.198Z,14.33
2019-02-22T22:49:48.684Z,14.53
2019-02-22T22:52:19.281Z,15.93
2019-02-22T22:54:49.826Z,15.60
2019-02-22T22:57:19.966Z,15.93
2019-02-22T22:59:50.497Z,15.30
2019-02-22T23:02:20.706Z,15.83
2019-02-22T23:04:50.938Z,14.55
2019-02-22T23:07:21.577Z,13.88
2019-02-22T23:09:52.047Z,16.75
2019-02-22T23:12:23.969Z,16.15
2019-02-22T23:14:54.311Z,16.42
2019-02-22T23:17:24.535Z,15.32
2019-02-22T23:19:57.196Z,15.90
2019-02-22T23:22:28.027Z,15.35
2019-02-22T23:24:58.656Z,17.05
2019-02-22T23:27:28.909Z,15.65
2019-02-22T23:29:59.323Z,16.90
2019-02-22T23:32:29.748Z,14.60
2019-02-22T23:35:00.297Z,16.10
2019-02-22T23:37:31.220Z,16.00
2019-02-22T23:40:02.055Z,19.30
2019-02-22T23:42:32.889Z,16.40
2019-02-22T23:45:03.629Z,15.95
2019-02-22T23:47:33.844Z,17.95
2019-02-22T23:50:04.792Z,16.75
2019-02-22T23:52:35.350Z,16.55
2019-02-22T23:55:05.643Z,17.20
2019-02-22T23:57:35.857Z,16.10
